Time;durP1;ratioP1;P1;durP2;ratioP2;P2;SDS_P1;SDS_P2;PMS_P1;PMS_P2;Temp;Humidity;BMP_temperature;BMP_pressure;BME280_temperature;BME280_humidity;BME280_pressure;Samples;Min_cycle;Max_cycle;Signal;HPM_P1;HPM_P2
2022/06/07 00:01:25;;;;;;;12.30;11.40;;;;;;;10.69;100.00;101382.47;5144890;28;20148;-61
2022/06/07 00:03:55;;;;;;;9.43;8.73;;;;;;;10.72;100.00;101382.81;5159801;28;20031;-61
2022/06/07 00:06:27;;;;;;;12.43;11.35;;;;;;;10.62;100.00;101366.44;5146008;28;20034;-60
2022/06/07 00:08:57;;;;;;;11.32;10.25;;;;;;;10.69;100.00;101374.38;5160790;28;20030;-61
2022/06/07 00:11:28;;;;;;;11.55;10.57;;;;;;;10.61;100.00;101370.22;5144145;28;20050;-61
2022/06/07 00:13:58;;;;;;;10.98;10.30;;;;;;;10.63;100.00;101375.38;5160695;28;20030;-60
2022/06/07 00:16:29;;;;;;;10.10;9.20;;;;;;;10.61;100.00;101378.31;5144911;28;20027;-60
2022/06/07 00:18:59;;;;;;;10.45;9.75;;;;;;;10.61;100.00;101369.38;5144418;28;20030;-59
2022/06/07 00:21:30;;;;;;;9.63;8.80;;;;;;;10.67;100.00;101363.84;5144453;28;20022;-61
2022/06/07 00:24:01;;;;;;;9.82;9.15;;;;;;;10.70;100.00;101368.72;5160152;28;20050;-61
2022/06/07 00:26:33;;;;;;;10.57;9.80;;;;;;;10.73;100.00;101360.13;5160570;28;20042;-60
2022/06/07 00:29:08;;;;;;;10.38;9.70;;;;;;;10.78;100.00;101365.63;5144285;28;20038;-59
2022/06/07 00:31:40;;;;;;;9.85;9.05;;;;;;;10.83;100.00;101357.63;5144256;28;20023;-62
2022/06/07 00:34:11;;;;;;;11.45;10.23;;;;;;;10.91;100.00;101366.38;5144198;28;20038;-61
2022/06/07 00:36:43;;;;;;;10.68;9.88;;;;;;;11.01;100.00;101355.72;5160616;28;20030;-61
2022/06/07 00:39:13;;;;;;;8.85;8.25;;;;;;;11.08;100.00;101351.78;5160717;28;20039;-61
2022/06/07 00:41:44;;;;;;;20.63;10.38;;;;;;;11.14;100.00;101350.81;5144728;28;20031;-62
2022/06/07 00:44:20;;;;;;;9.02;8.20;;;;;;;11.20;100.00;101349.00;5144433;28;20066;-61
2022/06/07 00:47:05;;;;;;;8.73;8.02;;;;;;;11.14;100.00;101350.81;5145596;28;20030;-62
2022/06/07 00:49:48;;;;;;;10.25;9.50;;;;;;;11.06;100.00;101350.41;5160403;28;20515;-61
2022/06/07 00:52:21;;;;;;;9.45;8.85;;;;;;;11.00;100.00;101352.19;5160465;28;20455;-60
2022/06/07 00:54:51;;;;;;;15.70;9.98;;;;;;;10.92;100.00;101346.41;5143108;28;20030;-60
2022/06/07 00:57:22;;;;;;;10.07;9.23;;;;;;;10.84;100.00;101344.91;5159979;28;20034;-60
2022/06/07 00:59:53;;;;;;;13.40;8.45;;;;;;;10.75;100.00;101349.91;5159969;28;20026;-61
2022/06/07 01:02:24;;;;;;;8.15;7.68;;;;;;;10.64;100.00;101350.00;5159738;28;20483;-61
2022/06/07 01:04:54;;;;;;;17.30;9.90;;;;;;;10.48;100.00;101340.81;5159624;28;20125;-60
2022/06/07 01:13:03;;;;;;;10.45;9.45;;;;;;;10.45;100.00;101334.00;5124967;29;20078;-59
2022/06/07 01:15:33;;;;;;;10.00;9.10;;;;;;;10.43;100.00;101336.13;5123498;28;20483;-61
2022/06/07 01:18:05;;;;;;;8.75;8.18;;;;;;;10.39;100.00;101334.19;5139679;28;20054;-60
2022/06/07 01:20:35;;;;;;;8.75;8.15;;;;;;;10.41;100.00;101324.75;5139343;28;20035;-61
2022/06/07 01:23:07;;;;;;;9.57;8.85;;;;;;;10.42;100.00;101329.09;5122401;28;20027;-59
2022/06/07 01:25:37;;;;;;;10.25;9.50;;;;;;;10.41;100.00;101326.63;5154373;28;20031;-59
2022/06/07 01:28:07;;;;;;;8.10;7.63;;;;;;;10.39;100.00;101317.97;5159257;28;20015;-60
2022/06/07 01:30:38;;;;;;;8.25;7.55;;;;;;;10.36;100.00;101318.47;5142073;28;20463;-61
2022/06/07 01:33:08;;;;;;;9.25;8.32;;;;;;;10.40;100.00;101323.09;5142858;28;20027;-62
2022/06/07 01:35:39;;;;;;;6.82;6.43;;;;;;;10.41;100.00;101311.25;5159167;28;20026;-61
2022/06/07 01:38:09;;;;;;;6.32;5.93;;;;;;;10.43;100.00;101319.94;5140312;28;20027;-58
2022/06/07 01:43:29;;;;;;;14.75;7.13;;;;;;;10.31;100.00;101319.19;5123974;29;20117;-61
2022/06/07 01:46:03;;;;;;;6.95;6.57;;;;;;;10.25;100.00;101305.84;5122726;28;20118;-62
2022/06/07 01:48:34;;;;;;;6.00;5.70;;;;;;;10.23;100.00;101308.78;5122731;28;20455;-61
2022/06/07 01:51:07;;;;;;;7.88;7.38;;;;;;;10.23;100.00;101310.66;5138790;28;20023;-58
2022/06/07 01:53:38;;;;;;;7.55;6.85;;;;;;;10.22;100.00;101306.31;5243212;22;20470;-80
2022/06/07 01:56:11;;;;;;;7.25;6.63;;;;;;;10.20;100.00;101308.44;5245516;28;20017;-79
2022/06/07 01:58:42;;;;;;;7.53;7.03;;;;;;;10.14;100.00;101302.09;5233557;28;20159;-78
2022/06/07 02:01:13;;;;;;;7.75;7.25;;;;;;;10.15;100.00;101306.44;5233867;28;20025;-80
2022/06/07 02:03:43;;;;;;;9.30;7.95;;;;;;;10.00;100.00;101287.28;5233007;28;20027;-79
2022/06/07 02:06:14;;;;;;;6.40;5.95;;;;;;;10.10;100.00;101299.09;5232857;28;20154;-80
2022/06/07 02:08:45;;;;;;;6.10;5.65;;;;;;;9.96;100.00;101276.16;5232672;28;20029;-81
2022/06/07 02:11:22;;;;;;;7.82;7.38;;;;;;;9.88;100.00;101267.63;5232367;28;20021;-79
2022/06/07 02:13:53;;;;;;;6.18;5.68;;;;;;;10.04;100.00;101291.13;5232887;28;20023;-81
2022/06/07 02:16:23;;;;;;;10.15;6.47;;;;;;;9.94;100.00;101280.16;5232586;28;20100;-80
2022/06/07 02:18:54;;;;;;;9.13;6.63;;;;;;;10.04;100.00;101291.13;5233603;28;20017;-80
2022/06/07 02:21:25;;;;;;;7.38;7.00;;;;;;;10.03;100.00;101297.59;5232833;28;20029;-79
2022/06/07 02:23:56;;;;;;;6.90;6.43;;;;;;;9.87;100.00;101276.75;5231565;28;20051;-78
2022/06/07 02:26:37;;;;;;;7.97;7.20;;;;;;;9.87;100.00;101272.19;5230344;28;20478;-79
2022/06/07 02:29:30;;;;;;;6.72;6.40;;;;;;;9.94;100.00;101291.75;5230592;28;20025;-80
2022/06/07 02:32:31;;;;;;;16.10;6.97;;;;;;;9.94;100.00;101294.44;5229459;28;20020;-81
2022/06/07 02:35:04;;;;;;;6.13;5.72;;;;;;;9.95;100.00;101288.00;5217655;28;20069;-79
2022/06/07 02:37:37;;;;;;;6.55;6.15;;;;;;;9.74;100.00;101264.41;5230320;28;20025;-79
2022/06/07 02:40:08;;;;;;;7.05;6.60;;;;;;;9.99;100.00;101294.56;5229257;28;20502;-79
2022/06/07 02:42:39;;;;;;;6.95;6.35;;;;;;;9.94;100.00;101280.97;5231461;28;20048;-78
2022/06/07 02:45:11;;;;;;;8.25;7.70;;;;;;;9.92;100.00;101280.38;5231009;28;20494;-79
2022/06/07 02:47:41;;;;;;;10.23;7.15;;;;;;;9.87;100.00;101271.38;5230671;28;20057;-79
2022/06/07 02:50:12;;;;;;;9.70;7.25;;;;;;;9.88;100.00;101268.44;5230316;28;20067;-79
2022/06/07 02:52:43;;;;;;;7.18;6.57;;;;;;;9.90;100.00;101277.09;5232340;28;20023;-80
2022/06/07 02:55:14;;;;;;;9.23;6.90;;;;;;;9.86;100.00;101272.44;5232152;28;20089;-80
2022/06/07 02:57:45;;;;;;;10.90;7.68;;;;;;;9.83;100.00;101268.34;5232348;28;20047;-79
2022/06/07 03:00:16;;;;;;;7.32;6.72;;;;;;;9.92;100.00;101293.06;5231814;28;20037;-80
2022/06/07 03:02:48;;;;;;;6.55;5.93;;;;;;;9.80;100.00;101279.63;5230976;28;20410;-80
2022/06/07 03:05:19;;;;;;;11.15;7.10;;;;;;;9.83;100.00;101292.59;5232596;28;20085;-79
2022/06/07 03:07:50;;;;;;;7.32;6.82;;;;;;;9.76;100.00;101287.38;5232222;28;20040;-80
2022/06/07 03:10:21;;;;;;;14.50;6.97;;;;;;;9.74;100.00;101288.69;5231101;28;20028;-78
2022/06/07 03:12:53;;;;;;;7.15;6.65;;;;;;;9.70;100.00;101274.03;5230587;28;20028;-80
2022/06/07 03:15:23;;;;;;;9.07;7.82;;;;;;;9.76;100.00;101292.78;5230181;28;20052;-79
2022/06/07 03:17:54;;;;;;;7.38;6.90;;;;;;;9.67;100.00;101277.19;5233075;28;20017;-81
2022/06/07 03:20:24;;;;;;;7.25;6.65;;;;;;;9.75;100.00;101290.31;5236123;28;20036;-80
2022/06/07 03:22:55;;;;;;;8.65;7.75;;;;;;;9.76;100.00;101283.84;5234916;28;20047;-79
2022/06/07 03:25:26;;;;;;;9.88;7.90;;;;;;;9.71;100.00;101283.75;5236520;28;20024;-80
2022/06/07 03:27:56;;;;;;;9.13;7.55;;;;;;;9.78;100.00;101296.06;5235845;28;20025;-81
2022/06/07 03:30:27;;;;;;;7.55;7.15;;;;;;;9.76;100.00;101286.56;5236384;28;20059;-80
2022/06/07 03:32:58;;;;;;;7.70;6.95;;;;;;;9.85;100.00;101306.69;5235190;28;20032;-78
2022/06/07 03:35:29;;;;;;;7.82;7.13;;;;;;;9.85;100.00;101309.38;5235914;28;20086;-80
2022/06/07 03:37:59;;;;;;;10.00;7.35;;;;;;;9.79;100.00;101297.69;5235491;28;20033;-80
2022/06/07 03:40:45;;;;;;;6.55;6.15;;;;;;;9.87;100.00;101307.25;5236235;28;20467;-78
2022/06/07 03:43:18;;;;;;;8.55;7.85;;;;;;;9.73;100.00;101295.13;5232083;28;20490;-79
2022/06/07 03:45:49;;;;;;;8.27;6.90;;;;;;;9.78;100.00;101308.72;5233247;28;20074;-80
2022/06/07 03:48:23;;;;;;;10.90;7.68;;;;;;;9.59;100.00;101274.88;5234079;28;20025;-81
2022/06/07 03:50:55;;;;;;;7.88;7.18;;;;;;;9.41;100.00;101251.59;5235346;28;20046;-80
2022/06/07 03:53:40;;;;;;;7.00;6.10;;;;;;;9.83;100.00;101311.50;5234806;28;20060;-80
2022/06/07 03:56:17;;;;;;;9.30;8.02;;;;;;;9.86;100.00;101311.00;5234111;28;20486;-80
2022/06/07 03:58:54;;;;;;;7.43;7.03;;;;;;;9.85;100.00;101313.94;5236063;28;20029;-80
2022/06/07 04:01:27;;;;;;;7.40;7.00;;;;;;;9.88;100.00;101318.88;5235681;28;20045;-79
2022/06/07 04:04:09;;;;;;;6.68;6.38;;;;;;;9.61;100.00;101278.16;5235317;28;20035;-79
2022/06/07 04:09:39;;;;;;;7.50;7.05;;;;;;;9.87;100.00;101304.56;5238347;28;20044;-79
2022/06/07 04:12:34;;;;;;;7.40;6.90;;;;;;;9.51;100.00;101245.63;5236351;28;20435;-79
2022/06/07 04:15:07;;;;;;;7.60;7.15;;;;;;;10.09;100.00;101319.03;5234229;28;20090;-79
2022/06/07 04:17:43;;;;;;;11.07;8.30;;;;;;;10.14;100.00;101324.50;5235618;28;20025;-80
2022/06/07 04:20:14;;;;;;;7.72;7.22;;;;;;;10.16;100.00;101316.16;5233360;28;20039;-80
2022/06/07 04:22:44;;;;;;;9.45;8.23;;;;;;;10.25;100.00;101313.94;5236247;28;20037;-80
2022/06/07 04:25:21;;;;;;;9.27;7.78;;;;;;;10.30;100.00;101295.13;5234923;28;20193;-79
2022/06/07 04:27:54;;;;;;;7.13;6.63;;;;;;;10.74;100.00;101318.56;5236057;28;20025;-80
2022/06/07 04:30:25;;;;;;;7.63;7.15;;;;;;;11.04;100.00;101309.28;5232780;28;20085;-79
2022/06/07 04:32:56;;;;;;;7.25;6.85;;;;;;;11.31;100.00;101315.63;5234672;28;20511;-80
2022/06/07 04:35:34;;;;;;;7.25;6.78;;;;;;;11.52;100.00;101318.59;5234406;28;20053;-81
2022/06/07 04:38:08;;;;;;;15.20;5.88;;;;;;;11.55;100.00;101297.25;5235092;28;20048;-81
2022/06/07 04:40:43;;;;;;;6.82;6.32;;;;;;;11.91;100.00;101317.47;5236343;28;20033;-82
2022/06/07 04:43:17;;;;;;;8.13;7.28;;;;;;;11.94;100.00;101308.84;5235326;28;20061;-81
2022/06/07 04:45:53;;;;;;;6.35;5.95;;;;;;;11.93;100.00;101314.50;5236725;28;20021;-81
2022/06/07 04:48:23;;;;;;;5.28;4.97;;;;;;;11.93;100.00;101318.03;5237234;28;20409;-81
2022/06/07 04:51:12;;;;;;;7.03;6.20;;;;;;;11.88;100.00;101303.63;5236317;28;20025;-81
2022/06/07 04:53:53;;;;;;;5.78;5.47;;;;;;;12.06;100.00;101327.66;5236686;28;20035;-80
2022/06/07 04:56:32;;;;;;;5.63;5.28;;;;;;;12.07;100.00;101327.41;5238045;28;20032;-80
2022/06/07 04:59:21;;;;;;;5.65;5.15;;;;;;;12.12;100.00;101307.72;5244750;28;20036;-80
2022/06/07 05:02:02;;;;;;;5.32;4.97;;;;;;;12.36;100.00;101329.88;5243322;28;20072;-85
2022/06/07 05:04:36;;;;;;;5.15;4.75;;;;;;;12.50;100.00;101323.75;5239091;28;20400;-79
2022/06/07 05:07:12;;;;;;;5.72;5.30;;;;;;;12.66;100.00;101316.59;5221744;28;20472;-83
2022/06/07 05:09:46;;;;;;;10.32;5.40;;;;;;;12.84;100.00;101324.31;5220229;28;20021;-80
2022/06/07 05:12:30;;;;;;;5.80;5.32;;;;;;;12.84;100.00;101308.06;5212726;28;20398;-79
2022/06/07 05:15:03;;;;;;;4.45;4.25;;;;;;;13.05;100.00;101325.28;5213107;28;20093;-84
2022/06/07 05:17:34;;;;;;;4.80;4.47;;;;;;;12.96;100.00;101293.50;5217383;28;20053;-81
2022/06/07 05:20:05;;;;;;;7.05;4.72;;;;;;;13.27;100.00;101321.66;5217136;28;20037;-80
2022/06/07 05:22:36;;;;;;;11.30;5.78;;;;;;;13.43;100.00;101331.50;5217630;28;20112;-79
2022/06/07 05:25:10;;;;;;;6.40;5.80;;;;;;;13.54;100.00;101326.97;5218894;28;20081;-80
2022/06/07 05:27:45;;;;;;;5.25;5.03;;;;;;;13.60;100.00;101328.59;5218585;28;20029;-81
2022/06/07 05:30:18;;;;;;;5.10;4.90;;;;;;;13.66;100.00;101322.94;5218968;28;20028;-81
2022/06/07 05:32:51;;;;;;;7.03;4.35;;;;;;;13.84;100.00;101333.34;5218653;28;20075;-81
2022/06/07 05:35:22;;;;;;;4.07;3.88;;;;;;;13.87;100.00;101329.25;5215910;28;20036;-81
2022/06/07 05:37:56;;;;;;;5.18;4.38;;;;;;;13.92;100.00;101326.53;5219307;28;20401;-82
2022/06/07 05:40:26;;;;;;;7.30;5.75;;;;;;;14.10;100.00;101320.63;5216593;28;20025;-81
2022/06/07 05:42:58;;;;;;;5.30;4.80;;;;;;;14.04;100.00;101283.69;5219979;28;20290;-81
2022/06/07 05:45:31;;;;;;;7.78;5.18;;;;;;;14.20;100.00;101271.75;5216638;28;20072;-81
2022/06/07 05:48:01;;;;;;;4.72;4.43;;;;;;;14.73;100.00;101320.44;5219007;28;20028;-82
2022/06/07 05:50:34;;;;;;;5.55;5.18;;;;;;;14.79;100.00;101309.28;5218729;28;20025;-84
2022/06/07 05:53:09;;;;;;;11.70;5.80;;;;;;;15.05;100.00;101325.59;5219702;28;20140;-85
2022/06/07 05:55:40;;;;;;;6.45;4.80;;;;;;;14.95;100.00;101298.41;5219290;28;20021;-81
2022/06/07 05:58:13;;;;;;;5.43;5.03;;;;;;;15.32;100.00;101330.69;5220280;28;20037;-87
2022/06/07 06:00:52;;;;;;;4.95;4.75;;;;;;;15.34;100.00;101313.00;5218672;28;20100;-83
2022/06/07 06:03:26;;;;;;;10.50;5.40;;;;;;;15.52;100.00;101327.94;5220400;28;20029;-84
2022/06/07 06:06:06;;;;;;;4.90;4.30;;;;;;;15.57;100.00;101316.25;5219030;28;20064;-85
2022/06/07 06:11:32;;;;;;;9.38;4.55;;;;;;;15.60;100.00;101329.28;5219753;28;20047;-82
2022/06/07 06:14:10;;;;;;;5.85;5.30;;;;;;;15.70;100.00;101348.31;5220459;28;20031;-82
2022/06/07 06:16:40;;;;;;;7.22;5.53;;;;;;;15.80;100.00;101331.94;5220415;28;20042;-82
2022/06/07 06:19:14;;;;;;;4.70;4.10;;;;;;;15.81;100.00;101325.41;5221319;28;20080;-82
2022/06/07 06:21:48;;;;;;;4.35;4.07;;;;;;;16.01;100.00;101335.38;5224230;28;20557;-81
2022/06/07 06:24:23;;;;;;;5.18;4.75;;;;;;;16.05;100.00;101329.09;5224725;28;20479;-86
2022/06/07 06:26:54;;;;;;;4.82;4.53;;;;;;;16.02;100.00;101307.03;5219275;28;20029;-86
2022/06/07 06:29:28;;;;;;;9.95;5.63;;;;;;;16.07;100.00;101294.19;5219023;28;20045;-82
2022/06/07 06:32:06;;;;;;;4.50;3.53;;;;;;;16.35;100.00;101325.34;5221032;28;20045;-86
2022/06/07 06:34:44;;;;;;;5.82;5.43;;;;;;;16.20;100.00;101279.94;5219335;28;20029;-82
2022/06/07 06:37:17;;;;;;;9.05;4.30;;;;;;;16.63;100.00;101331.16;5219411;28;20074;-83
2022/06/07 06:39:59;;;;;;;5.95;5.35;;;;;;;16.81;100.00;101330.47;5219758;28;20060;-83
2022/06/07 06:42:30;;;;;;;4.50;4.18;;;;;;;17.00;100.00;101320.50;5220547;28;20104;-82
2022/06/07 06:45:01;;;;;;;3.92;3.60;;;;;;;16.84;100.00;101286.25;5220786;28;20041;-82
2022/06/07 06:47:32;;;;;;;4.60;4.30;;;;;;;17.04;100.00;101296.97;5221559;28;20063;-83
2022/06/07 06:50:09;;;;;;;6.88;4.43;;;;;;;17.38;100.00;101313.25;5221560;28;20041;-83
2022/06/07 06:52:40;;;;;;;8.00;4.22;;;;;;;17.41;100.00;101307.22;5221325;28;20036;-84
2022/06/07 06:55:14;;;;;;;6.05;4.30;;;;;;;17.69;100.00;101327.38;5227682;28;20045;-85
2022/06/07 06:57:44;;;;;;;4.10;3.80;;;;;;;17.63;100.00;101297.66;5226291;28;20093;-86
2022/06/07 07:00:16;;;;;;;3.80;3.60;;;;;;;17.64;100.00;101305.56;5226674;28;20452;-84
2022/06/07 07:02:53;;;;;;;4.25;3.95;;;;;;;17.96;100.00;101331.41;5224828;28;20050;-86
2022/06/07 07:05:24;;;;;;;4.68;3.83;;;;;;;18.13;100.00;101313.41;5220803;28;20044;-80
2022/06/07 07:07:55;;;;;;;7.40;4.10;;;;;;;18.17;100.00;101313.63;5222580;28;20029;-86
2022/06/07 07:10:26;;;;;;;4.72;3.95;;;;;;;18.12;100.00;101250.84;5225134;28;20029;-81
2022/06/07 07:13:02;;;;;;;9.05;4.88;;;;;;;18.66;100.00;101249.44;5222639;28;20097;-84
2022/06/07 07:15:33;;;;;;;7.20;3.80;;;;;;;19.51;100.00;101317.38;5222873;28;20017;-81
2022/06/07 07:18:03;;;;;;;3.67;3.45;;;;;;;19.67;100.00;101298.69;5222695;28;20036;-83
2022/06/07 07:20:41;;;;;;;4.55;4.15;;;;;;;20.05;100.00;101329.38;5224596;28;20017;-81
2022/06/07 07:23:14;;;;;;;4.82;4.47;;;;;;;19.64;100.00;101252.72;5221388;28;20050;-82
2022/06/07 07:25:44;;;;;;;5.68;3.03;;;;;;;20.17;100.00;101333.22;5218962;28;20072;-82
2022/06/07 07:28:16;;;;;;;3.90;3.47;;;;;;;19.64;100.00;101241.75;5217476;28;20033;-80
2022/06/07 07:30:47;;;;;;;3.58;3.33;;;;;;;19.58;100.00;101259.44;5219983;28;20025;-83
2022/06/07 07:33:18;;;;;;;3.05;2.95;;;;;;;19.42;100.00;101265.19;5220217;28;20068;-83
2022/06/07 07:35:49;;;;;;;4.57;3.70;;;;;;;19.31;100.00;101274.75;5217690;28;20021;-81
2022/06/07 07:38:19;;;;;;;4.95;4.53;;;;;;;19.12;100.00;101254.84;5217815;28;20030;-81
2022/06/07 07:40:51;;;;;;;2.95;2.85;;;;;;;19.39;100.00;101298.66;5217705;28;20036;-85
2022/06/07 07:43:27;;;;;;;3.03;2.92;;;;;;;18.97;100.00;101255.97;5218139;28;20038;-87
2022/06/07 07:45:57;;;;;;;3.60;3.15;;;;;;;19.33;100.00;101332.78;5218193;28;20104;-80
2022/06/07 07:48:31;;;;;;;4.32;3.58;;;;;;;18.68;100.00;101255.41;5216874;28;20056;-79
2022/06/07 07:51:07;;;;;;;3.50;3.30;;;;;;;18.80;100.00;101272.97;5217737;28;20446;-81
2022/06/07 07:53:37;;;;;;;6.13;3.78;;;;;;;19.28;100.00;101310.16;5234525;23;20040;-83
2022/06/07 07:56:07;;;;;;;3.10;2.90;;;;;;;19.50;100.00;101312.97;5229677;28;20039;-84
2022/06/07 07:58:38;;;;;;;3.60;3.33;;;;;;;19.52;100.00;101308.84;5229921;28;20371;-83
2022/06/07 08:01:12;;;;;;;3.85;3.55;;;;;;;19.65;100.00;101325.56;5229554;28;20036;-84
2022/06/07 08:03:43;;;;;;;6.07;3.35;;;;;;;19.48;100.00;101296.84;5229307;28;20017;-84
2022/06/07 08:06:17;;;;;;;5.03;3.53;;;;;;;19.66;100.00;101329.94;5234224;28;20051;-84
2022/06/07 08:08:50;;;;;;;3.97;3.67;;;;;;;20.01;100.00;101317.41;5233244;28;20021;-84
2022/06/07 08:11:23;;;;;;;4.70;3.25;;;;;;;20.30;100.00;101304.13;5233183;28;20102;-84
2022/06/07 08:13:54;;;;;;;4.97;3.30;;;;;;;20.64;100.00;101322.81;5236607;28;20032;-84
2022/06/07 08:16:26;;;;;;;4.95;3.85;;;;;;;20.47;100.00;101276.88;5237878;28;20033;-84
2022/06/07 08:18:56;;;;;;;5.30;2.38;;;;;;;20.44;100.00;101244.56;5233641;28;20081;-84
2022/06/07 08:21:28;;;;;;;6.35;3.55;;;;;;;20.87;100.00;101307.94;5233410;28;20029;-84
2022/06/07 08:23:58;;;;;;;2.90;2.70;;;;;;;20.97;100.00;101308.81;5232692;28;20568;-84
2022/06/07 08:26:30;;;;;;;6.78;3.78;;;;;;;20.81;100.00;101313.88;5234741;28;20025;-84
2022/06/07 08:29:02;;;;;;;5.53;2.53;;;;;;;20.74;100.00;101299.81;5233739;28;20112;-84
2022/06/07 08:31:34;;;;;;;3.65;2.85;;;;;;;21.05;100.00;101310.78;5232731;28;20086;-84
2022/06/07 08:39:43;;;;;;;8.18;3.80;;;;;;;20.90;100.00;101301.81;5233825;28;20106;-84
2022/06/07 08:42:18;;;;;;;3.80;3.60;;;;;;;20.92;100.00;101303.44;5234176;28;20364;-84
2022/06/07 08:44:57;;;;;;;3.85;3.10;;;;;;;21.17;100.00;101305.50;5233284;28;20028;-84
2022/06/07 08:47:41;;;;;;;3.45;2.58;;;;;;;21.27;100.00;101312.69;5233889;28;20026;-85
2022/06/07 08:50:18;;;;;;;5.97;2.22;;;;;;;21.17;100.00;101316.50;5234272;28;20040;-85
2022/06/07 08:53:14;;;;;;;7.63;3.47;;;;;;;21.10;100.00;101305.16;5233990;28;20053;-85
2022/06/07 08:55:56;;;;;;;1.98;1.88;;;;;;;21.05;100.00;101288.81;5233313;28;20037;-85
2022/06/07 08:58:34;;;;;;;4.40;3.65;;;;;;;21.33;100.00;101303.19;5233412;28;20036;-85
2022/06/07 09:01:18;;;;;;;1.55;1.50;;;;;;;21.31;100.00;101262.31;5233489;28;20077;-84
2022/06/07 09:04:14;;;;;;;2.30;2.10;;;;;;;21.87;100.00;101315.63;5234273;28;20021;-85
2022/06/07 09:06:48;;;;;;;2.25;2.13;;;;;;;21.61;100.00;101292.78;5233253;28;20273;-85
2022/06/07 09:09:21;;;;;;;2.10;1.70;;;;;;;21.69;100.00;101298.28;5235917;28;20110;-85
2022/06/07 09:12:10;;;;;;;3.35;2.85;;;;;;;21.79;100.00;101277.94;5237495;28;20381;-84
2022/06/07 09:14:44;;;;;;;1.67;1.58;;;;;;;21.86;99.29;101301.06;5239393;28;20027;-84
2022/06/07 09:17:19;;;;;;;2.58;2.47;;;;;;;21.80;99.30;101301.53;5239463;28;20033;-84
2022/06/07 09:19:49;;;;;;;2.25;2.15;;;;;;;21.59;98.33;101289.53;5236783;28;20205;-84
2022/06/07 09:22:25;;;;;;;2.58;2.17;;;;;;;21.60;100.00;101307.66;5234388;28;20077;-85
2022/06/07 09:25:04;;;;;;;2.10;2.00;;;;;;;21.63;100.00;101294.06;5234102;28;20017;-85
2022/06/07 09:27:34;;;;;;;2.58;1.98;;;;;;;21.54;100.00;101288.56;5234838;28;20502;-85
2022/06/07 09:30:28;;;;;;;1.58;1.38;;;;;;;21.66;99.63;101304.41;5237109;28;20047;-85
2022/06/07 09:33:07;;;;;;;1.98;1.85;;;;;;;21.71;100.00;101307.00;5237708;28;20036;-83
2022/06/07 09:35:42;;;;;;;2.63;2.53;;;;;;;21.51;99.92;101308.41;5237310;28;20035;-86
2022/06/07 09:38:20;;;;;;;3.45;1.83;;;;;;;21.33;100.00;101287.53;5235911;28;20240;-86
2022/06/07 09:41:01;;;;;;;3.60;2.55;;;;;;;21.72;100.00;101300.38;5235683;28;20032;-86
2022/06/07 09:43:42;;;;;;;2.20;2.00;;;;;;;21.77;100.00;101308.47;5235255;28;20025;-86
2022/06/07 09:46:23;;;;;;;1.83;1.73;;;;;;;21.79;100.00;101299.91;5237541;28;20017;-86
2022/06/07 09:48:54;;;;;;;2.00;1.92;;;;;;;22.00;100.00;101283.59;5235232;28;20029;-85
2022/06/07 09:51:28;;;;;;;1.70;1.60;;;;;;;22.04;100.00;101307.41;5235612;28;20427;-85
2022/06/07 09:53:59;;;;;;;1.48;1.48;;;;;;;21.76;100.00;101251.88;5237196;28;20036;-83
2022/06/07 09:56:38;;;;;;;1.77;1.67;;;;;;;22.22;100.00;101298.06;5236157;28;20025;-83
2022/06/07 09:59:47;;;;;;;4.18;2.13;;;;;;;22.30;100.00;101287.34;5236062;28;20025;-84
2022/06/07 10:02:30;;;;;;;2.25;2.15;;;;;;;22.20;100.00;101289.31;5189689;28;20033;-85
2022/06/07 10:05:31;;;;;;;3.30;1.98;;;;;;;22.08;100.00;101291.91;5245156;28;20115;-83
2022/06/07 10:08:30;;;;;;;3.53;2.00;;;;;;;22.34;100.00;101296.59;5239829;28;20116;-84
2022/06/07 10:11:28;;;;;;;3.85;3.15;;;;;;;22.21;100.00;101284.63;5244678;28;20020;-84
2022/06/07 10:14:16;;;;;;;1.95;1.85;;;;;;;22.21;100.00;101287.38;5241735;28;20024;-84
2022/06/07 10:17:02;;;;;;;2.15;1.60;;;;;;;22.28;100.00;101286.88;5237309;28;20040;-83
2022/06/07 10:19:52;;;;;;;3.00;2.60;;;;;;;22.16;100.00;101288.34;5236199;28;20031;-83
2022/06/07 10:23:01;;;;;;;2.78;2.53;;;;;;;21.95;100.00;101298.31;5238193;28;20078;-84
2022/06/07 10:25:50;;;;;;;3.70;2.05;;;;;;;22.04;100.00;101284.59;5239431;28;20037;-84
2022/06/07 10:28:38;;;;;;;3.85;2.40;;;;;;;21.94;100.00;101266.47;5243597;28;20029;-83
2022/06/07 10:31:12;;;;;;;2.75;2.65;;;;;;;22.04;100.00;101285.41;5244854;28;20081;-84
2022/06/07 10:33:50;;;;;;;2.08;1.98;;;;;;;21.99;100.00;101285.53;5243835;28;20059;-85
2022/06/07 10:36:42;;;;;;;2.80;2.60;;;;;;;21.96;100.00;101286.19;5244521;28;20036;-84
2022/06/07 10:39:41;;;;;;;6.50;2.58;;;;;;;21.77;100.00;101283.75;5244152;28;20282;-84
2022/06/07 10:42:29;;;;;;;7.30;3.72;;;;;;;21.41;100.00;101289.47;5244846;28;20299;-84
2022/06/07 10:45:12;;;;;;;4.35;3.55;;;;;;;21.27;100.00;101280.53;5235646;28;20028;-85
2022/06/07 10:47:51;;;;;;;2.92;2.72;;;;;;;20.99;100.00;101241.47;5235267;28;20024;-84
2022/06/07 10:50:26;;;;;;;;;;;;;;;21.52;100.00;101282.56;5236311;28;20042;-85
2022/06/07 10:53:16;;;;;;;3.83;3.40;;;;;;;21.45;100.00;101257.47;5238570;28;19917;-88
2022/06/07 10:56:03;;;;;;;2.90;2.70;;;;;;;21.72;100.00;101283.06;5236274;28;20044;-87
2022/06/07 10:58:42;;;;;;;7.60;3.78;;;;;;;21.64;100.00;101272.91;5237182;28;20036;-86
2022/06/07 11:01:20;;;;;;;4.43;3.03;;;;;;;21.79;100.00;101272.44;5238951;28;20542;-87
2022/06/07 11:04:00;;;;;;;3.28;2.92;;;;;;;21.90;100.00;101287.50;5245281;28;20057;-85
2022/06/07 11:09:22;;;;;;;8.00;3.83;;;;;;;22.11;100.00;101284.94;5230554;28;19901;-84
2022/06/07 11:12:01;;;;;;;8.13;4.07;;;;;;;22.17;100.00;101278.97;5223239;28;20029;-85
2022/06/07 11:14:57;;;;;;;2.67;2.58;;;;;;;22.25;100.00;101277.31;5245281;28;20029;-85
2022/06/07 11:17:48;;;;;;;2.40;2.30;;;;;;;22.30;100.00;101282.66;5242615;28;20027;-85
2022/06/07 11:20:31;;;;;;;3.40;3.17;;;;;;;22.17;100.00;101275.41;5239341;28;20021;-85
2022/06/07 11:23:17;;;;;;;4.45;4.00;;;;;;;21.91;100.00;101280.88;5241649;28;20051;-85
2022/06/07 11:26:14;;;;;;;3.85;3.50;;;;;;;21.81;100.00;101262.72;5240474;28;20090;-85
2022/06/07 11:28:53;;;;;;;6.65;3.72;;;;;;;21.65;100.00;101249.78;5241601;28;20035;-85
2022/06/07 11:31:23;;;;;;;3.95;3.72;;;;;;;21.70;100.00;101277.09;5240929;28;20025;-85
2022/06/07 11:33:54;;;;;;;5.05;3.47;;;;;;;21.62;100.00;101283.41;5242175;28;20063;-85
2022/06/07 11:36:29;;;;;;;3.88;3.25;;;;;;;21.74;100.00;101267.88;5242015;28;20025;-85
2022/06/07 11:39:23;;;;;;;2.95;2.75;;;;;;;21.86;100.00;101273.56;5246115;28;20024;-84
2022/06/07 11:42:19;;;;;;;3.35;2.92;;;;;;;21.99;100.00;101266.28;5247281;28;20033;-84
2022/06/07 11:45:04;;;;;;;4.53;3.42;;;;;;;21.95;100.00;101240.56;5235850;28;20061;-84
2022/06/07 11:47:43;;;;;;;3.30;3.08;;;;;;;22.03;100.00;101272.00;5226945;28;20036;-83
2022/06/07 11:50:31;;;;;;;4.10;3.70;;;;;;;22.19;100.00;101275.88;5226270;28;20017;-83
2022/06/07 11:53:31;;;;;;;3.97;3.67;;;;;;;22.29;100.00;101267.28;5225618;28;20120;-83
2022/06/07 11:56:20;;;;;;;3.80;3.50;;;;;;;22.43;100.00;101283.63;5224590;28;20022;-83
2022/06/07 11:59:21;;;;;;;2.97;2.78;;;;;;;22.51;100.00;101269.88;5225561;28;20081;-83
2022/06/07 12:01:55;;;;;;;4.00;3.70;;;;;;;22.64;100.00;101270.00;5224938;28;20040;-84
2022/06/07 12:04:37;;;;;;;3.58;2.63;;;;;;;22.77;100.00;101263.50;5226048;28;20021;-84
2022/06/07 12:07:35;;;;;;;5.28;2.78;;;;;;;23.22;100.00;101269.34;5224998;28;20025;-84
2022/06/07 12:10:22;;;;;;;3.40;3.20;;;;;;;23.29;100.00;101264.13;5224552;28;20171;-83
2022/06/07 12:12:56;;;;;;;2.75;2.55;;;;;;;23.50;100.00;101261.41;5224297;28;20141;-83
2022/06/07 12:15:42;;;;;;;2.78;2.65;;;;;;;23.58;100.00;101244.06;5222342;28;20050;-83
2022/06/07 12:18:23;;;;;;;3.17;3.03;;;;;;;23.64;100.00;101239.97;5224864;28;20033;-83
2022/06/07 12:20:54;;;;;;;2.70;2.50;;;;;;;23.65;100.00;101260.06;5224105;28;20021;-83